sensor_id;sensor_type;location;lat;lon;timestamp;temperature;humidity
46730;DHT22;32476;50.002;11.854;2023-05-10T00:02:25;10.00;99.90
46730;DHT22;32476;50.002;11.854;2023-05-10T00:04:52;9.90;99.90
46730;DHT22;32476;50.002;11.854;2023-05-10T00:07:18;10.00;99.90
46730;DHT22;32476;50.002;11.854;2023-05-10T00:09:45;9.90;99.90
46730;DHT22;32476;50.002;11.854;2023-05-10T00:12:11;9.90;99.90
46730;DHT22;32476;50.002;11.854;2023-05-10T00:14:36;9.90;99.90
46730;DHT22;32476;50.002;11.854;2023-05-10T00:17:04;9.80;99.90
46730;DHT22;32476;50.002;11.854;2023-05-10T00:19:29;9.80;99.90
46730;DHT22;32476;50.002;11.854;2023-05-10T00:21:55;9.80;99.90
46730;DHT22;32476;50.002;11.854;2023-05-10T00:24:22;9.80;99.90
46730;DHT22;32476;50.002;11.854;2023-05-10T00:26:48;9.70;99.90
46730;DHT22;32476;50.002;11.854;2023-05-10T00:29:14;9.70;99.90
46730;DHT22;32476;50.002;11.854;2023-05-10T00:31:41;9.70;99.90
46730;DHT22;32476;50.002;11.854;2023-05-10T00:34:07;9.70;99.90
46730;DHT22;32476;50.002;11.854;2023-05-10T00:36:33;9.60;99.90
46730;DHT22;32476;50.002;11.854;2023-05-10T00:39:00;9.70;99.90
46730;DHT22;32476;50.002;11.854;2023-05-10T00:41:26;9.60;99.90
46730;DHT22;32476;50.002;11.854;2023-05-10T00:43:52;9.60;99.90
46730;DHT22;32476;50.002;11.854;2023-05-10T00:46:19;9.60;99.90
46730;DHT22;32476;50.002;11.854;2023-05-10T00:48:45;9.60;99.90
46730;DHT22;32476;50.002;11.854;2023-05-10T00:51:11;9.60;99.90
46730;DHT22;32476;50.002;11.854;2023-05-10T00:53:38;9.60;99.90
46730;DHT22;32476;50.002;11.854;2023-05-10T00:56:04;9.60;99.90
46730;DHT22;32476;50.002;11.854;2023-05-10T00:58:31;9.60;99.90
46730;DHT22;32476;50.002;11.854;2023-05-10T01:00:58;9.60;99.90
46730;DHT22;32476;50.002;11.854;2023-05-10T01:03:25;9.60;99.90
46730;DHT22;32476;50.002;11.854;2023-05-10T01:05:51;9.60;99.90
46730;DHT22;32476;50.002;11.854;2023-05-10T01:08:19;9.60;99.90
46730;DHT22;32476;50.002;11.854;2023-05-10T01:10:45;9.60;99.90
46730;DHT22;32476;50.002;11.854;2023-05-10T01:13:12;9.60;99.90
46730;DHT22;32476;50.002;11.854;2023-05-10T01:15:40;9.60;99.90
46730;DHT22;32476;50.002;11.854;2023-05-10T01:18:08;9.60;99.90
46730;DHT22;32476;50.002;11.854;2023-05-10T01:20:39;9.60;99.90
46730;DHT22;32476;50.002;11.854;2023-05-10T01:23:52;9.60;99.90
46730;DHT22;32476;50.002;11.854;2023-05-10T01:26:46;9.60;99.90
46730;DHT22;32476;50.002;11.854;2023-05-10T01:38:33;9.50;99.90
46730;DHT22;32476;50.002;11.854;2023-05-10T01:44:01;9.50;99.90
46730;DHT22;32476;50.002;11.854;2023-05-10T01:46:36;9.50;99.90
46730;DHT22;32476;50.002;11.854;2023-05-10T01:49:11;9.50;99.90
46730;DHT22;32476;50.002;11.854;2023-05-10T01:51:53;9.50;99.90
46730;DHT22;32476;50.002;11.854;2023-05-10T01:54:21;9.50;99.90
46730;DHT22;32476;50.002;11.854;2023-05-10T01:56:55;9.50;99.90
46730;DHT22;32476;50.002;11.854;2023-05-10T01:59:21;9.50;99.90
46730;DHT22;32476;50.002;11.854;2023-05-10T02:01:50;9.50;99.90
46730;DHT22;32476;50.002;11.854;2023-05-10T02:04:17;9.50;99.90
46730;DHT22;32476;50.002;11.854;2023-05-10T02:06:45;9.50;99.90
46730;DHT22;32476;50.002;11.854;2023-05-10T02:09:14;9.50;99.90
46730;DHT22;32476;50.002;11.854;2023-05-10T02:11:42;9.50;99.90
46730;DHT22;32476;50.002;11.854;2023-05-10T02:14:10;9.50;99.90
46730;DHT22;32476;50.002;11.854;2023-05-10T02:16:38;9.60;99.90
46730;DHT22;32476;50.002;11.854;2023-05-10T02:19:05;9.60;99.90
46730;DHT22;32476;50.002;11.854;2023-05-10T02:21:34;9.50;99.90
46730;DHT22;32476;50.002;11.854;2023-05-10T02:24:02;9.50;99.90
46730;DHT22;32476;50.002;11.854;2023-05-10T02:26:29;9.60;99.90
46730;DHT22;32476;50.002;11.854;2023-05-10T02:28:57;9.60;99.90
46730;DHT22;32476;50.002;11.854;2023-05-10T02:31:25;9.60;99.90
46730;DHT22;32476;50.002;11.854;2023-05-10T02:33:52;9.60;99.90
46730;DHT22;32476;50.002;11.854;2023-05-10T02:36:19;9.60;99.90
46730;DHT22;32476;50.002;11.854;2023-05-10T02:38:48;9.60;99.90
46730;DHT22;32476;50.002;11.854;2023-05-10T02:41:16;9.60;99.90
46730;DHT22;32476;50.002;11.854;2023-05-10T02:43:43;9.60;99.90
46730;DHT22;32476;50.002;11.854;2023-05-10T02:46:11;9.60;99.90
46730;DHT22;32476;50.002;11.854;2023-05-10T02:48:37;9.60;99.90
46730;DHT22;32476;50.002;11.854;2023-05-10T02:51:05;9.60;99.90
46730;DHT22;32476;50.002;11.854;2023-05-10T02:53:36;9.60;99.90
46730;DHT22;32476;50.002;11.854;2023-05-10T02:56:13;9.60;99.90
46730;DHT22;32476;50.002;11.854;2023-05-10T02:58:41;9.60;99.90
46730;DHT22;32476;50.002;11.854;2023-05-10T03:01:06;9.60;99.90
46730;DHT22;32476;50.002;11.854;2023-05-10T03:03:33;9.60;99.90
46730;DHT22;32476;50.002;11.854;2023-05-10T03:06:00;9.60;99.90
46730;DHT22;32476;50.002;11.854;2023-05-10T03:08:26;9.60;99.90
46730;DHT22;32476;50.002;11.854;2023-05-10T03:17:01;9.60;99.90
46730;DHT22;32476;50.002;11.854;2023-05-10T03:19:39;9.60;99.90
46730;DHT22;32476;50.002;11.854;2023-05-10T03:22:10;9.70;99.90
46730;DHT22;32476;50.002;11.854;2023-05-10T03:24:39;9.60;99.90
46730;DHT22;32476;50.002;11.854;2023-05-10T03:27:08;9.60;99.90
46730;DHT22;32476;50.002;11.854;2023-05-10T03:29:34;9.50;99.90
46730;DHT22;32476;50.002;11.854;2023-05-10T03:32:01;9.50;99.90
46730;DHT22;32476;50.002;11.854;2023-05-10T03:34:30;9.50;99.90
46730;DHT22;32476;50.002;11.854;2023-05-10T03:36:56;9.50;99.90
46730;DHT22;32476;50.002;11.854;2023-05-10T03:39:24;9.50;99.90
46730;DHT22;32476;50.002;11.854;2023-05-10T03:41:50;9.50;99.90
46730;DHT22;32476;50.002;11.854;2023-05-10T03:44:16;9.50;99.90
46730;DHT22;32476;50.002;11.854;2023-05-10T03:46:43;9.50;99.90
46730;DHT22;32476;50.002;11.854;2023-05-10T03:49:09;9.40;99.90
46730;DHT22;32476;50.002;11.854;2023-05-10T03:51:35;9.40;99.90
46730;DHT22;32476;50.002;11.854;2023-05-10T03:54:02;9.40;99.90
46730;DHT22;32476;50.002;11.854;2023-05-10T03:56:28;9.50;99.90
46730;DHT22;32476;50.002;11.854;2023-05-10T03:58:53;9.50;99.90
46730;DHT22;32476;50.002;11.854;2023-05-10T04:01:21;9.50;99.90
46730;DHT22;32476;50.002;11.854;2023-05-10T04:03:46;9.50;99.90
46730;DHT22;32476;50.002;11.854;2023-05-10T04:06:12;9.50;99.90
46730;DHT22;32476;50.002;11.854;2023-05-10T04:08:39;9.50;99.90
46730;DHT22;32476;50.002;11.854;2023-05-10T04:11:10;9.50;99.90
46730;DHT22;32476;50.002;11.854;2023-05-10T04:13:36;9.40;99.90
46730;DHT22;32476;50.002;11.854;2023-05-10T04:16:04;9.50;99.90
46730;DHT22;32476;50.002;11.854;2023-05-10T04:18:30;9.50;99.90
46730;DHT22;32476;50.002;11.854;2023-05-10T04:20:56;9.60;99.90
46730;DHT22;32476;50.002;11.854;2023-05-10T04:23:24;9.50;99.90
46730;DHT22;32476;50.002;11.854;2023-05-10T04:25:51;9.60;99.90
46730;DHT22;32476;50.002;11.854;2023-05-10T04:28:17;9.60;99.90
46730;DHT22;32476;50.002;11.854;2023-05-10T04:30:45;9.60;99.90
46730;DHT22;32476;50.002;11.854;2023-05-10T04:33:11;9.70;99.90
46730;DHT22;32476;50.002;11.854;2023-05-10T04:35:36;9.60;99.90
46730;DHT22;32476;50.002;11.854;2023-05-10T04:38:04;9.60;99.90
46730;DHT22;32476;50.002;11.854;2023-05-10T04:40:29;9.60;99.90
46730;DHT22;32476;50.002;11.854;2023-05-10T04:42:55;9.70;99.90
46730;DHT22;32476;50.002;11.854;2023-05-10T04:45:22;9.70;99.90
46730;DHT22;32476;50.002;11.854;2023-05-10T04:47:48;9.70;99.90
46730;DHT22;32476;50.002;11.854;2023-05-10T04:50:14;9.60;99.90
46730;DHT22;32476;50.002;11.854;2023-05-10T04:52:42;9.60;99.90
46730;DHT22;32476;50.002;11.854;2023-05-10T04:55:08;9.70;99.90
46730;DHT22;32476;50.002;11.854;2023-05-10T04:57:35;9.60;99.90
46730;DHT22;32476;50.002;11.854;2023-05-10T05:00:02;9.50;99.90
46730;DHT22;32476;50.002;11.854;2023-05-10T05:02:28;9.50;99.90
46730;DHT22;32476;50.002;11.854;2023-05-10T05:04:55;9.60;99.90
46730;DHT22;32476;50.002;11.854;2023-05-10T05:07:24;9.60;99.90
46730;DHT22;32476;50.002;11.854;2023-05-10T05:09:50;9.60;99.90
46730;DHT22;32476;50.002;11.854;2023-05-10T05:12:16;9.50;99.90
46730;DHT22;32476;50.002;11.854;2023-05-10T05:14:43;9.40;99.90
46730;DHT22;32476;50.002;11.854;2023-05-10T05:17:09;9.50;99.90
46730;DHT22;32476;50.002;11.854;2023-05-10T05:19:35;9.50;99.90
46730;DHT22;32476;50.002;11.854;2023-05-10T05:22:02;9.40;99.90
46730;DHT22;32476;50.002;11.854;2023-05-10T05:24:28;9.40;99.90
46730;DHT22;32476;50.002;11.854;2023-05-10T05:26:54;9.40;99.90
46730;DHT22;32476;50.002;11.854;2023-05-10T05:29:21;9.40;99.90
46730;DHT22;32476;50.002;11.854;2023-05-10T05:31:47;9.40;99.90
46730;DHT22;32476;50.002;11.854;2023-05-10T05:34:13;9.30;99.90
46730;DHT22;32476;50.002;11.854;2023-05-10T05:36:40;9.20;99.90
46730;DHT22;32476;50.002;11.854;2023-05-10T05:39:06;9.10;99.90
46730;DHT22;32476;50.002;11.854;2023-05-10T05:41:32;9.10;99.90
46730;DHT22;32476;50.002;11.854;2023-05-10T05:43:59;9.10;99.90
46730;DHT22;32476;50.002;11.854;2023-05-10T05:46:25;9.10;99.90
46730;DHT22;32476;50.002;11.854;2023-05-10T05:48:51;9.10;99.90
46730;DHT22;32476;50.002;11.854;2023-05-10T05:51:18;9.10;99.90
46730;DHT22;32476;50.002;11.854;2023-05-10T05:53:45;9.10;99.90
46730;DHT22;32476;50.002;11.854;2023-05-10T05:56:11;9.10;99.90
46730;DHT22;32476;50.002;11.854;2023-05-10T05:58:38;9.10;99.90
46730;DHT22;32476;50.002;11.854;2023-05-10T06:01:04;9.10;99.90
46730;DHT22;32476;50.002;11.854;2023-05-10T06:03:30;9.00;99.90
46730;DHT22;32476;50.002;11.854;2023-05-10T06:05:57;9.00;99.90
46730;DHT22;32476;50.002;11.854;2023-05-10T06:08:23;9.00;99.90
46730;DHT22;32476;50.002;11.854;2023-05-10T06:10:49;9.00;99.90
46730;DHT22;32476;50.002;11.854;2023-05-10T06:13:16;9.10;99.90
46730;DHT22;32476;50.002;11.854;2023-05-10T06:15:42;9.10;99.90
46730;DHT22;32476;50.002;11.854;2023-05-10T06:18:07;9.10;99.90
46730;DHT22;32476;50.002;11.854;2023-05-10T06:20:35;9.20;99.90
46730;DHT22;32476;50.002;11.854;2023-05-10T06:23:01;9.10;99.90
46730;DHT22;32476;50.002;11.854;2023-05-10T06:25:26;9.20;99.90
46730;DHT22;32476;50.002;11.854;2023-05-10T06:27:54;9.30;99.90
46730;DHT22;32476;50.002;11.854;2023-05-10T06:30:23;9.20;99.90
46730;DHT22;32476;50.002;11.854;2023-05-10T06:32:54;9.30;99.90
46730;DHT22;32476;50.002;11.854;2023-05-10T06:35:20;9.30;99.90
46730;DHT22;32476;50.002;11.854;2023-05-10T06:37:46;9.30;99.90
46730;DHT22;32476;50.002;11.854;2023-05-10T06:40:14;9.30;99.90
46730;DHT22;32476;50.002;11.854;2023-05-10T06:42:39;9.30;99.90
46730;DHT22;32476;50.002;11.854;2023-05-10T06:45:06;9.30;99.90
46730;DHT22;32476;50.002;11.854;2023-05-10T06:47:33;9.40;99.90
46730;DHT22;32476;50.002;11.854;2023-05-10T06:49:59;9.30;99.90
46730;DHT22;32476;50.002;11.854;2023-05-10T06:52:25;9.30;99.90
46730;DHT22;32476;50.002;11.854;2023-05-10T06:54:52;9.40;99.90
46730;DHT22;32476;50.002;11.854;2023-05-10T06:57:18;9.40;99.90
46730;DHT22;32476;50.002;11.854;2023-05-10T06:59:44;9.40;99.90
46730;DHT22;32476;50.002;11.854;2023-05-10T07:02:11;9.40;99.90
46730;DHT22;32476;50.002;11.854;2023-05-10T07:04:37;9.60;99.90
46730;DHT22;32476;50.002;11.854;2023-05-10T07:07:02;9.50;99.90
46730;DHT22;32476;50.002;11.854;2023-05-10T07:09:30;9.40;99.90
46730;DHT22;32476;50.002;11.854;2023-05-10T07:11:56;9.40;99.90
46730;DHT22;32476;50.002;11.854;2023-05-10T07:14:22;9.40;99.90
46730;DHT22;32476;50.002;11.854;2023-05-10T07:16:50;9.60;99.90
46730;DHT22;32476;50.002;11.854;2023-05-10T07:19:15;9.70;99.90
46730;DHT22;32476;50.002;11.854;2023-05-10T07:21:41;9.80;99.90
46730;DHT22;32476;50.002;11.854;2023-05-10T07:24:10;9.80;99.90
46730;DHT22;32476;50.002;11.854;2023-05-10T07:26:36;9.90;99.90
46730;DHT22;32476;50.002;11.854;2023-05-10T07:29:02;9.90;99.90
46730;DHT22;32476;50.002;11.854;2023-05-10T07:31:30;9.80;99.90
46730;DHT22;32476;50.002;11.854;2023-05-10T07:33:55;9.80;99.90
46730;DHT22;32476;50.002;11.854;2023-05-10T07:36:22;9.90;99.90
46730;DHT22;32476;50.002;11.854;2023-05-10T07:38:49;10.00;99.90
46730;DHT22;32476;50.002;11.854;2023-05-10T07:41:15;10.10;99.90
46730;DHT22;32476;50.002;11.854;2023-05-10T07:43:41;10.20;99.90
46730;DHT22;32476;50.002;11.854;2023-05-10T07:46:08;10.20;99.90
46730;DHT22;32476;50.002;11.854;2023-05-10T07:48:36;10.20;99.90
46730;DHT22;32476;50.002;11.854;2023-05-10T07:51:02;10.40;99.90
46730;DHT22;32476;50.002;11.854;2023-05-10T07:53:29;10.50;99.90
46730;DHT22;32476;50.002;11.854;2023-05-10T07:55:58;10.60;99.90
46730;DHT22;32476;50.002;11.854;2023-05-10T07:58:25;10.70;99.90
46730;DHT22;32476;50.002;11.854;2023-05-10T08:00:52;10.80;99.90
46730;DHT22;32476;50.002;11.854;2023-05-10T08:03:18;10.90;99.90
46730;DHT22;32476;50.002;11.854;2023-05-10T08:05:44;10.80;99.90
46730;DHT22;32476;50.002;11.854;2023-05-10T08:08:11;10.70;99.90
46730;DHT22;32476;50.002;11.854;2023-05-10T08:10:37;10.80;99.90
46730;DHT22;32476;50.002;11.854;2023-05-10T08:13:03;10.80;99.90
46730;DHT22;32476;50.002;11.854;2023-05-10T08:15:30;10.80;99.90
46730;DHT22;32476;50.002;11.854;2023-05-10T08:17:56;10.90;99.90
46730;DHT22;32476;50.002;11.854;2023-05-10T08:20:22;10.90;99.90
46730;DHT22;32476;50.002;11.854;2023-05-10T08:22:49;10.90;99.90
46730;DHT22;32476;50.002;11.854;2023-05-10T08:25:15;10.90;99.90
46730;DHT22;32476;50.002;11.854;2023-05-10T08:27:42;11.00;99.90
46730;DHT22;32476;50.002;11.854;2023-05-10T08:30:09;11.10;99.90
46730;DHT22;32476;50.002;11.854;2023-05-10T08:32:35;11.20;99.90
46730;DHT22;32476;50.002;11.854;2023-05-10T08:35:03;11.30;99.90
46730;DHT22;32476;50.002;11.854;2023-05-10T08:37:31;11.30;99.90
46730;DHT22;32476;50.002;11.854;2023-05-10T08:39:57;11.20;99.90
46730;DHT22;32476;50.002;11.854;2023-05-10T08:42:25;11.20;99.90
46730;DHT22;32476;50.002;11.854;2023-05-10T08:44:56;11.10;99.90
46730;DHT22;32476;50.002;11.854;2023-05-10T08:47:22;11.20;99.90
46730;DHT22;32476;50.002;11.854;2023-05-10T08:49:48;11.30;99.90
46730;DHT22;32476;50.002;11.854;2023-05-10T08:52:18;11.30;99.90
46730;DHT22;32476;50.002;11.854;2023-05-10T08:54:45;11.20;99.90
46730;DHT22;32476;50.002;11.854;2023-05-10T08:57:11;11.50;99.90
46730;DHT22;32476;50.002;11.854;2023-05-10T08:59:38;11.60;99.90
46730;DHT22;32476;50.002;11.854;2023-05-10T09:02:06;11.50;99.90
46730;DHT22;32476;50.002;11.854;2023-05-10T09:04:31;11.70;99.90
46730;DHT22;32476;50.002;11.854;2023-05-10T09:06:59;11.70;99.90
46730;DHT22;32476;50.002;11.854;2023-05-10T09:09:25;11.60;99.90
46730;DHT22;32476;50.002;11.854;2023-05-10T09:11:51;11.90;99.90
46730;DHT22;32476;50.002;11.854;2023-05-10T09:14:19;11.80;99.90
46730;DHT22;32476;50.002;11.854;2023-05-10T09:16:46;12.00;99.90
46730;DHT22;32476;50.002;11.854;2023-05-10T09:19:12;12.00;99.90
46730;DHT22;32476;50.002;11.854;2023-05-10T09:21:39;12.00;99.90
46730;DHT22;32476;50.002;11.854;2023-05-10T09:24:06;11.90;99.90
46730;DHT22;32476;50.002;11.854;2023-05-10T09:26:32;11.80;99.90
46730;DHT22;32476;50.002;11.854;2023-05-10T09:29:00;12.00;99.90
46730;DHT22;32476;50.002;11.854;2023-05-10T09:31:47;11.80;99.90
46730;DHT22;32476;50.002;11.854;2023-05-10T09:34:20;11.80;99.90
46730;DHT22;32476;50.002;11.854;2023-05-10T09:36:57;11.90;99.90
46730;DHT22;32476;50.002;11.854;2023-05-10T09:39:32;12.20;99.90
46730;DHT22;32476;50.002;11.854;2023-05-10T09:42:04;12.40;99.90
46730;DHT22;32476;50.002;11.854;2023-05-10T09:44:33;12.60;99.90
46730;DHT22;32476;50.002;11.854;2023-05-10T09:47:00;12.90;99.90
46730;DHT22;32476;50.002;11.854;2023-05-10T09:49:25;12.50;99.90
46730;DHT22;32476;50.002;11.854;2023-05-10T09:52:04;12.80;99.90
46730;DHT22;32476;50.002;11.854;2023-05-10T09:54:30;12.90;99.90
46730;DHT22;32476;50.002;11.854;2023-05-10T09:56:57;12.70;99.90
46730;DHT22;32476;50.002;11.854;2023-05-10T09:59:25;12.90;99.90
46730;DHT22;32476;50.002;11.854;2023-05-10T10:01:53;13.00;99.90
46730;DHT22;32476;50.002;11.854;2023-05-10T10:04:22;13.30;99.90
46730;DHT22;32476;50.002;11.854;2023-05-10T10:06:59;13.20;99.90
46730;DHT22;32476;50.002;11.854;2023-05-10T10:09:28;13.40;99.90
46730;DHT22;32476;50.002;11.854;2023-05-10T10:11:54;13.20;99.90
46730;DHT22;32476;50.002;11.854;2023-05-10T10:14:22;13.10;99.90
46730;DHT22;32476;50.002;11.854;2023-05-10T10:16:50;12.90;99.90
46730;DHT22;32476;50.002;11.854;2023-05-10T10:19:20;13.00;99.90
46730;DHT22;32476;50.002;11.854;2023-05-10T10:21:49;13.20;99.90
46730;DHT22;32476;50.002;11.854;2023-05-10T10:24:17;13.30;99.90
46730;DHT22;32476;50.002;11.854;2023-05-10T10:26:43;13.10;99.90
46730;DHT22;32476;50.002;11.854;2023-05-10T10:32:29;13.20;99.90
46730;DHT22;32476;50.002;11.854;2023-05-10T10:34:55;13.20;99.90
46730;DHT22;32476;50.002;11.854;2023-05-10T10:37:24;13.80;99.90
46730;DHT22;32476;50.002;11.854;2023-05-10T10:40:29;13.90;99.90
46730;DHT22;32476;50.002;11.854;2023-05-10T10:42:58;14.00;99.90
46730;DHT22;32476;50.002;11.854;2023-05-10T10:45:25;14.10;99.90
46730;DHT22;32476;50.002;11.854;2023-05-10T10:48:22;14.40;99.90
46730;DHT22;32476;50.002;11.854;2023-05-10T10:50:59;14.20;99.90
46730;DHT22;32476;50.002;11.854;2023-05-10T10:53:26;14.00;99.90
46730;DHT22;32476;50.002;11.854;2023-05-10T10:56:09;13.70;99.90
46730;DHT22;32476;50.002;11.854;2023-05-10T10:58:38;14.40;99.90
46730;DHT22;32476;50.002;11.854;2023-05-10T11:01:18;14.30;99.90
46730;DHT22;32476;50.002;11.854;2023-05-10T11:06:33;15.00;99.90
46730;DHT22;32476;50.002;11.854;2023-05-10T11:09:05;15.20;99.90
46730;DHT22;32476;50.002;11.854;2023-05-10T11:11:34;15.20;99.90
46730;DHT22;32476;50.002;11.854;2023-05-10T11:14:05;14.70;99.90
46730;DHT22;32476;50.002;11.854;2023-05-10T11:16:43;15.30;99.90
46730;DHT22;32476;50.002;11.854;2023-05-10T11:19:15;15.80;99.90
46730;DHT22;32476;50.002;11.854;2023-05-10T11:21:51;15.90;99.90
46730;DHT22;32476;50.002;11.854;2023-05-10T11:24:22;15.90;99.90
46730;DHT22;32476;50.002;11.854;2023-05-10T11:26:53;16.10;99.90
46730;DHT22;32476;50.002;11.854;2023-05-10T11:29:19;16.10;99.90
46730;DHT22;32476;50.002;11.854;2023-05-10T11:31:46;16.30;99.90
46730;DHT22;32476;50.002;11.854;2023-05-10T11:34:28;16.80;99.90
46730;DHT22;32476;50.002;11.854;2023-05-10T11:37:01;16.60;99.90
46730;DHT22;32476;50.002;11.854;2023-05-10T11:39:30;16.50;99.90
46730;DHT22;32476;50.002;11.854;2023-05-10T11:41:57;16.80;99.90
46730;DHT22;32476;50.002;11.854;2023-05-10T11:44:24;16.80;99.90
46730;DHT22;32476;50.002;11.854;2023-05-10T11:47:01;17.00;99.90
46730;DHT22;32476;50.002;11.854;2023-05-10T11:49:27;17.00;99.90
46730;DHT22;32476;50.002;11.854;2023-05-10T11:51:53;17.00;99.90
46730;DHT22;32476;50.002;11.854;2023-05-10T11:54:20;17.30;99.90
46730;DHT22;32476;50.002;11.854;2023-05-10T11:56:45;17.60;99.90
46730;DHT22;32476;50.002;11.854;2023-05-10T11:59:14;16.80;99.90
46730;DHT22;32476;50.002;11.854;2023-05-10T12:01:41;16.70;99.90
46730;DHT22;32476;50.002;11.854;2023-05-10T12:04:07;16.10;99.90
46730;DHT22;32476;50.002;11.854;2023-05-10T12:06:37;16.40;99.90
46730;DHT22;32476;50.002;11.854;2023-05-10T12:09:08;16.90;99.90
46730;DHT22;32476;50.002;11.854;2023-05-10T12:11:39;17.10;99.90
46730;DHT22;32476;50.002;11.854;2023-05-10T12:14:09;17.00;99.90
46730;DHT22;32476;50.002;11.854;2023-05-10T12:16:36;16.60;99.90
46730;DHT22;32476;50.002;11.854;2023-05-10T12:19:01;16.40;99.90
46730;DHT22;32476;50.002;11.854;2023-05-10T12:21:29;16.10;99.90
46730;DHT22;32476;50.002;11.854;2023-05-10T12:24:02;16.30;99.90
46730;DHT22;32476;50.002;11.854;2023-05-10T12:26:29;16.30;99.90
46730;DHT22;32476;50.002;11.854;2023-05-10T12:29:14;16.40;99.90
46730;DHT22;32476;50.002;11.854;2023-05-10T12:31:55;16.10;99.90
46730;DHT22;32476;50.002;11.854;2023-05-10T12:34:33;16.00;99.90
46730;DHT22;32476;50.002;11.854;2023-05-10T12:37:02;15.30;99.90
46730;DHT22;32476;50.002;11.854;2023-05-10T12:39:41;14.90;99.90
46730;DHT22;32476;50.002;11.854;2023-05-10T12:42:10;14.50;99.90
46730;DHT22;32476;50.002;11.854;2023-05-10T12:44:36;14.40;99.90
46730;DHT22;32476;50.002;11.854;2023-05-10T12:47:01;14.30;99.90
46730;DHT22;32476;50.002;11.854;2023-05-10T12:49:29;13.90;99.90
46730;DHT22;32476;50.002;11.854;2023-05-10T12:51:54;13.70;99.90
46730;DHT22;32476;50.002;11.854;2023-05-10T12:54:22;13.80;99.90
46730;DHT22;32476;50.002;11.854;2023-05-10T12:56:49;13.70;99.90
46730;DHT22;32476;50.002;11.854;2023-05-10T12:59:15;13.60;99.90
46730;DHT22;32476;50.002;11.854;2023-05-10T13:01:41;13.40;99.90
46730;DHT22;32476;50.002;11.854;2023-05-10T13:04:08;13.50;99.90
46730;DHT22;32476;50.002;11.854;2023-05-10T13:06:34;13.50;99.90
46730;DHT22;32476;50.002;11.854;2023-05-10T13:09:00;13.40;99.90
46730;DHT22;32476;50.002;11.854;2023-05-10T13:11:27;13.40;99.90
46730;DHT22;32476;50.002;11.854;2023-05-10T13:13:53;13.20;99.90
46730;DHT22;32476;50.002;11.854;2023-05-10T13:16:19;13.20;99.90
46730;DHT22;32476;50.002;11.854;2023-05-10T13:18:46;13.30;99.90
46730;DHT22;32476;50.002;11.854;2023-05-10T13:21:12;13.20;99.90
46730;DHT22;32476;50.002;11.854;2023-05-10T13:23:38;13.20;99.90
46730;DHT22;32476;50.002;11.854;2023-05-10T13:26:05;13.30;99.90
46730;DHT22;32476;50.002;11.854;2023-05-10T13:28:31;13.40;99.90
46730;DHT22;32476;50.002;11.854;2023-05-10T13:30:57;13.50;99.90
46730;DHT22;32476;50.002;11.854;2023-05-10T13:33:24;13.60;99.90
46730;DHT22;32476;50.002;11.854;2023-05-10T13:35:50;13.60;99.90
46730;DHT22;32476;50.002;11.854;2023-05-10T13:38:16;13.60;99.90
46730;DHT22;32476;50.002;11.854;2023-05-10T13:40:43;13.30;99.90
46730;DHT22;32476;50.002;11.854;2023-05-10T13:43:09;13.20;99.90
46730;DHT22;32476;50.002;11.854;2023-05-10T13:45:35;13.20;99.90
46730;DHT22;32476;50.002;11.854;2023-05-10T13:48:03;13.40;99.90
46730;DHT22;32476;50.002;11.854;2023-05-10T13:50:29;13.40;99.90
46730;DHT22;32476;50.002;11.854;2023-05-10T13:52:55;13.40;99.90
46730;DHT22;32476;50.002;11.854;2023-05-10T13:55:22;13.60;99.90
46730;DHT22;32476;50.002;11.854;2023-05-10T13:57:49;13.70;99.90
46730;DHT22;32476;50.002;11.854;2023-05-10T14:00:15;13.70;99.90
46730;DHT22;32476;50.002;11.854;2023-05-10T14:02:45;13.70;99.90
46730;DHT22;32476;50.002;11.854;2023-05-10T14:05:10;13.60;99.90
46730;DHT22;32476;50.002;11.854;2023-05-10T14:07:36;13.60;99.90
46730;DHT22;32476;50.002;11.854;2023-05-10T14:10:04;13.60;99.90
46730;DHT22;32476;50.002;11.854;2023-05-10T14:12:30;13.40;99.90
46730;DHT22;32476;50.002;11.854;2023-05-10T14:14:55;13.30;99.90
46730;DHT22;32476;50.002;11.854;2023-05-10T14:17:23;13.50;99.90
46730;DHT22;32476;50.002;11.854;2023-05-10T14:19:49;13.70;99.90
46730;DHT22;32476;50.002;11.854;2023-05-10T14:22:15;13.90;99.90
46730;DHT22;32476;50.002;11.854;2023-05-10T14:24:42;13.90;99.90
46730;DHT22;32476;50.002;11.854;2023-05-10T14:27:12;13.90;99.90
46730;DHT22;32476;50.002;11.854;2023-05-10T14:29:38;13.90;99.90
46730;DHT22;32476;50.002;11.854;2023-05-10T14:32:05;14.00;99.90
46730;DHT22;32476;50.002;11.854;2023-05-10T14:34:32;14.00;99.90
46730;DHT22;32476;50.002;11.854;2023-05-10T14:36:58;14.10;99.90
46730;DHT22;32476;50.002;11.854;2023-05-10T14:39:25;13.90;99.90
46730;DHT22;32476;50.002;11.854;2023-05-10T14:41:51;14.00;99.90
46730;DHT22;32476;50.002;11.854;2023-05-10T14:44:17;14.00;99.90
46730;DHT22;32476;50.002;11.854;2023-05-10T14:46:45;14.10;99.90
46730;DHT22;32476;50.002;11.854;2023-05-10T14:49:11;14.20;99.90
46730;DHT22;32476;50.002;11.854;2023-05-10T14:51:37;14.20;99.90
46730;DHT22;32476;50.002;11.854;2023-05-10T14:54:04;14.10;99.90
46730;DHT22;32476;50.002;11.854;2023-05-10T14:56:30;14.00;99.90
46730;DHT22;32476;50.002;11.854;2023-05-10T14:58:56;14.00;99.90
46730;DHT22;32476;50.002;11.854;2023-05-10T15:01:24;14.00;99.90
46730;DHT22;32476;50.002;11.854;2023-05-10T15:03:50;14.00;99.90
46730;DHT22;32476;50.002;11.854;2023-05-10T15:06:16;14.00;99.90
46730;DHT22;32476;50.002;11.854;2023-05-10T15:08:44;13.90;99.90
46730;DHT22;32476;50.002;11.854;2023-05-10T15:11:10;13.90;99.90
46730;DHT22;32476;50.002;11.854;2023-05-10T15:13:35;13.90;99.90
46730;DHT22;32476;50.002;11.854;2023-05-10T15:16:03;13.90;99.90
46730;DHT22;32476;50.002;11.854;2023-05-10T15:18:28;13.90;99.90
46730;DHT22;32476;50.002;11.854;2023-05-10T15:20:54;13.90;99.90
46730;DHT22;32476;50.002;11.854;2023-05-10T15:23:22;13.90;99.90
46730;DHT22;32476;50.002;11.854;2023-05-10T15:25:48;13.80;99.90
46730;DHT22;32476;50.002;11.854;2023-05-10T15:28:15;13.80;99.90
46730;DHT22;32476;50.002;11.854;2023-05-10T15:30:42;13.80;99.90
46730;DHT22;32476;50.002;11.854;2023-05-10T15:33:08;13.80;99.90
46730;DHT22;32476;50.002;11.854;2023-05-10T15:35:34;13.90;99.90
46730;DHT22;32476;50.002;11.854;2023-05-10T15:38:02;14.00;99.90
46730;DHT22;32476;50.002;11.854;2023-05-10T15:40:28;14.10;99.90
46730;DHT22;32476;50.002;11.854;2023-05-10T15:42:54;14.00;99.90
46730;DHT22;32476;50.002;11.854;2023-05-10T15:45:21;13.90;99.90
46730;DHT22;32476;50.002;11.854;2023-05-10T15:47:47;13.90;99.90
46730;DHT22;32476;50.002;11.854;2023-05-10T15:50:14;13.90;99.90
46730;DHT22;32476;50.002;11.854;2023-05-10T15:52:42;14.00;99.90